Aurora, CO (80013)

3:52 AM MDT on April 02, 2015 (GMT -0600)
E Brunswick Place and E Brown Place | | Change Station
CLOSE
Current Station
Personal Weather Station
Location: Aurora, CO
Elevation: 5646 ft
Nearby Weather Stations

Elev 5646 ft 39.66 °N, 104.78 °W | Updated 47 seconds ago

Overcast
Overcast
38.5 °F
Feels Like 38 °F
N
0.0
Wind Variable Wind from North
Gusts 6.0 mph

Today
High -- | Low -- °F
--% Chance of Precip.
Yesterday
High -- | Low -- °F
Precip. -- in
6:42 AM 7:24 PM
Waxing Gibbous, 96% visible
Pressure 29.83 in
Visibility 10.0 miles
Clouds Scattered Clouds 6000 ft
Mostly Cloudy 13000 ft
Mostly Cloudy 22000 ft
Windchill 38 °F
Dew Point 31 °F
Humidity 74%
Rainfall 0.00 in
Snow Depth Not available.
UV 0 out of 12
Pollen 11.10 out of 12
Air Quality Not available.
Flu Activity Not available.
METAR KBKF 020858Z 02002KT 10SM SCT060 BKN130 BKN220 02/M01 A2994 RMK AO2A SLP102 T00181014 50003

More Conditions Fewer Conditions

Pressure 29.83 in
Visibility 10.0 miles
Clouds Scattered Clouds 6000 ft
Mostly Cloudy 13000 ft
Mostly Cloudy 22000 ft
Windchill 38 °F
Dew Point 31 °F
Humidity 74%
Rainfall 0.00 in
Snow Depth Not available.
UV 0 out of 12
Pollen 11.10 out of 12
Air Quality Not available.
Flu Activity Not available.
METAR KBKF 020858Z 02002KT 10SM SCT060 BKN130 BKN220 02/M01 A2994 RMK AO2A SLP102 T00181014 50003

More Conditions Fewer Conditions

10-Day Weather Forecast

Almanac

Astronomy

Apr. 02, 2015 Rise Set
Actual Time
Civil Twilight
Nautical Twilight
Astronomical Twilight
Moon
Length of Visible Light
Length of Day
Tomorrow will be .
, % of the Moon is Illuminated

Today's Extremes

State Highs State Lows

Community

WunderPhotos

Upload Photos

1,810,216 photos uploaded!

WunderBlogs® & News

Nearby

Air Quality

  Air Quality AQ Index Pollutant
Not available.

Snow Depth

Station Depth Elevation

Earthquake Activity

City Distance Mag. Time & Date
Minimum magnitude displayed is 2.5.

Coastal Water Temperatures

Place Temperature

Stations

Nearby Weather Stations

Station Location Temp. Windchill Dew Point Humidity Wind Precip. Elev Updated Type